createdAt,value
2017-12-20T16:03:03.113Z,3.60
2017-12-20T16:05:31.773Z,3.50
2017-12-20T16:08:02.946Z,3.20
2017-12-20T16:24:41.594Z,18.50
2017-12-20T16:27:10.651Z,19.20
2017-12-20T16:29:39.466Z,19.60
2017-12-20T16:32:08.705Z,19.80
2017-12-20T16:34:37.408Z,20.00
2017-12-20T16:37:06.940Z,20.20
2017-12-20T16:39:36.137Z,20.30
2017-12-20T16:42:05.251Z,20.40
2017-12-20T16:44:34.379Z,20.50
2017-12-20T16:47:03.059Z,20.60
2017-12-20T16:49:31.568Z,20.70
2017-12-20T16:52:00.776Z,20.70
2017-12-20T16:58:10.295Z,23.60
2017-12-20T17:00:38.715Z,24.50
2017-12-20T17:03:07.020Z,24.30
2017-12-20T17:05:35.957Z,23.90
2017-12-20T17:08:05.250Z,23.60
2017-12-20T17:10:34.206Z,23.10
2017-12-20T17:13:03.594Z,22.80
2017-12-20T17:15:32.649Z,22.50
2017-12-20T17:18:01.057Z,22.30
2017-12-20T17:20:30.431Z,22.10
2017-12-20T17:22:59.470Z,22.00
2017-12-20T17:25:29.596Z,21.70
2017-12-20T17:27:58.946Z,21.60
2017-12-20T17:30:28.015Z,21.60
2017-12-20T17:32:56.722Z,21.60
2017-12-20T17:35:26.476Z,21.60
2017-12-20T17:37:55.536Z,21.50
2017-12-20T17:40:24.746Z,21.50
2017-12-20T17:42:54.114Z,21.40
2017-12-20T17:45:22.840Z,21.40
2017-12-20T17:47:51.540Z,21.40
2017-12-20T17:50:20.553Z,21.40
2017-12-20T17:52:50.457Z,21.30
2017-12-20T17:55:19.492Z,21.40
2017-12-20T17:57:48.246Z,21.30
2017-12-20T18:00:16.661Z,21.30
2017-12-20T18:02:45.487Z,21.30
2017-12-20T18:05:14.600Z,21.30
2017-12-20T18:07:42.988Z,21.30
2017-12-20T18:10:11.245Z,21.30
2017-12-20T18:12:40.735Z,21.30
2017-12-20T18:15:10.838Z,21.30
2017-12-20T18:17:39.603Z,21.30
2017-12-20T18:20:07.964Z,21.30
2017-12-20T18:22:36.890Z,21.30
2017-12-20T18:25:06.031Z,21.30
2017-12-20T18:27:34.720Z,21.30
2017-12-20T18:30:03.429Z,21.30
2017-12-20T18:32:32.321Z,21.30
2017-12-20T18:35:01.227Z,21.30
2017-12-20T18:37:29.736Z,21.30
2017-12-20T18:39:59.130Z,21.30
2017-12-20T18:42:27.941Z,21.30
2017-12-20T18:44:56.840Z,21.30
2017-12-20T18:47:25.416Z,21.30
2017-12-20T18:49:54.550Z,21.30
2017-12-20T18:52:23.110Z,21.30
2017-12-20T18:54:52.535Z,21.30
2017-12-20T18:57:21.065Z,21.30
2017-12-20T18:59:50.781Z,21.30
2017-12-20T19:02:20.076Z,21.30
2017-12-20T19:04:48.721Z,21.30
2017-12-20T19:07:18.070Z,21.30
2017-12-20T19:09:46.439Z,21.30
2017-12-20T19:12:15.645Z,21.30
2017-12-20T19:14:44.543Z,21.30
2017-12-20T19:17:13.607Z,21.30
2017-12-20T19:19:42.989Z,21.30
2017-12-20T19:22:11.946Z,21.30
2017-12-20T19:24:41.460Z,21.30
2017-12-20T19:27:10.301Z,21.30
2017-12-20T19:29:39.170Z,21.30
2017-12-20T19:32:08.339Z,21.30
2017-12-20T19:34:37.945Z,21.30
2017-12-20T19:37:07.324Z,21.30
2017-12-20T19:39:35.674Z,21.30
2017-12-20T19:42:05.228Z,21.30
2017-12-20T19:44:33.617Z,21.30
2017-12-20T19:47:02.466Z,21.30
2017-12-20T19:49:32.170Z,21.30
2017-12-20T19:52:01.148Z,21.30
2017-12-20T19:54:29.577Z,21.30
2017-12-20T19:56:58.147Z,21.30
2017-12-20T19:59:27.745Z,21.30
2017-12-20T20:01:56.749Z,21.20
2017-12-20T20:04:26.143Z,21.20
2017-12-20T20:06:54.702Z,21.20
2017-12-20T20:09:24.255Z,21.20
2017-12-20T20:11:56.029Z,21.20
2017-12-20T20:14:25.350Z,21.20
2017-12-20T20:16:54.479Z,21.20
2017-12-20T20:19:23.668Z,21.20
2017-12-20T20:21:52.312Z,21.20
2017-12-20T20:24:22.938Z,21.20
2017-12-20T20:26:52.159Z,21.30
2017-12-20T20:29:21.423Z,21.20
2017-12-20T20:31:51.431Z,21.20
2017-12-20T20:34:20.507Z,21.20
2017-12-20T20:36:49.635Z,21.20
2017-12-20T20:39:17.886Z,21.30
2017-12-20T20:41:46.596Z,21.20
2017-12-20T20:44:15.168Z,21.20
2017-12-20T20:46:44.451Z,21.20
2017-12-20T20:49:14.118Z,21.20
2017-12-20T20:51:42.778Z,21.20
2017-12-20T20:54:12.478Z,21.20
2017-12-20T20:56:41.008Z,21.20
2017-12-20T20:59:10.464Z,21.20
2017-12-20T21:01:39.547Z,21.20
2017-12-20T21:04:08.567Z,21.20
2017-12-20T21:06:38.532Z,21.20
2017-12-20T21:09:08.206Z,21.20
2017-12-20T21:11:37.298Z,21.20
2017-12-20T21:14:06.289Z,21.20
2017-12-20T21:16:35.197Z,21.20
2017-12-20T21:19:04.660Z,21.20
2017-12-20T21:21:34.108Z,21.20
2017-12-20T21:24:02.984Z,21.20
2017-12-20T21:26:31.957Z,21.20
2017-12-20T21:29:00.390Z,21.20
2017-12-20T21:31:29.927Z,21.20
2017-12-20T21:33:58.790Z,21.10
2017-12-20T21:36:27.195Z,21.10
2017-12-20T21:38:55.479Z,21.10
2017-12-20T21:41:24.156Z,21.10
2017-12-20T21:43:54.360Z,21.10
2017-12-20T21:46:23.090Z,21.10
2017-12-20T21:48:52.145Z,21.10
2017-12-20T21:51:20.609Z,21.10
2017-12-20T21:53:49.510Z,21.10
2017-12-20T21:56:17.901Z,21.10
2017-12-20T21:58:46.717Z,21.00
2017-12-20T22:01:16.646Z,21.10
2017-12-20T22:03:46.228Z,21.00
2017-12-20T22:06:16.054Z,21.00
2017-12-20T22:08:45.143Z,21.00
2017-12-20T22:11:14.586Z,21.00
2017-12-20T22:13:43.024Z,21.00
2017-12-20T22:16:11.955Z,21.00
2017-12-20T22:18:41.369Z,21.00
2017-12-20T22:21:10.725Z,21.00
2017-12-20T22:23:40.500Z,21.00
2017-12-20T22:26:09.260Z,21.00
2017-12-20T22:28:38.733Z,21.00
2017-12-20T22:31:07.249Z,21.00
2017-12-20T22:33:36.229Z,21.00
2017-12-20T22:36:04.596Z,21.00
2017-12-20T22:38:32.732Z,21.00
2017-12-20T22:41:01.748Z,21.00
2017-12-20T22:43:30.807Z,21.00
2017-12-20T22:46:00.113Z,21.00
2017-12-20T22:48:28.443Z,21.00
2017-12-20T22:50:56.960Z,20.90
2017-12-20T22:53:26.018Z,20.90
2017-12-20T22:55:54.262Z,21.00
2017-12-20T22:58:22.470Z,21.00
2017-12-20T23:00:51.881Z,20.90
2017-12-20T23:03:20.145Z,21.00
2017-12-20T23:05:50.073Z,21.00
2017-12-20T23:08:18.637Z,20.90
2017-12-20T23:10:47.998Z,20.90
2017-12-20T23:13:17.338Z,20.90
2017-12-20T23:15:46.469Z,20.90
2017-12-20T23:18:15.027Z,20.90
2017-12-20T23:20:43.762Z,21.00
2017-12-20T23:23:13.355Z,20.90
2017-12-20T23:25:42.399Z,20.90
2017-12-20T23:28:11.374Z,20.90
2017-12-20T23:30:40.029Z,20.90
2017-12-20T23:33:09.679Z,20.90
2017-12-20T23:35:38.210Z,20.90
2017-12-20T23:38:07.356Z,20.90
2017-12-20T23:40:35.900Z,20.90
2017-12-20T23:43:04.947Z,20.90
2017-12-20T23:45:33.790Z,20.90
2017-12-20T23:48:02.409Z,21.00
2017-12-20T23:50:30.742Z,21.00
2017-12-20T23:52:59.461Z,21.10
2017-12-20T23:55:28.048Z,21.10
2017-12-20T23:57:57.419Z,21.00
